Troy, Pennsylvania
Current Conditions -  °F | °C
As of 4:53 PM on Thursday 25 Dec 2014 (Local Time) from KELM Reporting Station
Overcast Overcast  
Wind Chill: 34°   Ceiling: 4100
Heat Index: 42°   Visibility: 10mi
Dew Point: 30°   Wind: 16mph
Humidity: 62%   Direction: 260°W
Pressure: 29.97"   Gusts: 23mph
Location:  41.79°N, 76.79°W
Report Text: KELM 252153Z 26014G20KT 10SM OVC041 06/M01 A2997 RMK AO2 SLP154 T00561011
Loading
Personal Weather Stations






























Interactive Weather Map New forecast layout! Learn more

10-Day Weather Forecast

Advertisements
Track Severe Weather on mobile